logo
Rechercher aéroport 
image banner adimage banner adimage banner ad
image banner ad

S74 - Lost Isle

Situé à Stockton, United States

ICAO - S74, IATA -

Données fournies par Airmate  

Information générale

Coordonnées: N38°0'15" W121°27'24"
Élévation : feet MSL.
Variation magnétique : 16° East
Voir autres Aéroports à California

Données opérationnelles

Special qualification required
Heure actuelle UTC:
Heure actuelle locale:
Météo à : KSCK - Stockton Metropolitan ( 23 km )
METAR: KSCK 281155Z AUTO 08004KT 10SM CLR 14/10 A2995 RMK AO2 SLP141 T01390100 10189 20133 58001 $
TAF: KSCK 281122Z 2812/2912 VRB03KT P6SM SKC FM282100 29011KT P6SM SKC
Voir NOTAMs / SUP AIP / TFR affectant cet aéroport [VIEW]
Fréquences de communication: [VIEW]

Pistes:

Identifiant RWYQFULongueur (ft)Largeur (ft)SurfaceLDA (ft)
NW4000300WATER
SE4000300WATER

Coordonnées de l'aéroport

Adresse: Stockton United States

Vue satellite de S74